Time;durP1;ratioP1;P1;durP2;ratioP2;P2;SDS_P1;SDS_P2;PMS_P1;PMS_P2;Temp;Humidity;BMP_temperature;BMP_pressure;BME280_temperature;BME280_humidity;BME280_pressure;Samples;Min_cycle;Max_cycle;Signal;HPM_P1;HPM_P2
2021/04/22 00:02:04;;;;;;;5.60;2.93;;;9.30;99.90;;;;;;5029813;28;20266;-63
2021/04/22 00:04:30;;;;;;;4.37;3.10;;;9.20;99.90;;;;;;5027798;28;20528;-64
2021/04/22 00:06:56;;;;;;;3.30;2.50;;;9.10;99.90;;;;;;5025773;28;20285;-62
2021/04/22 00:09:21;;;;;;;4.17;3.37;;;9.20;99.90;;;;;;5023800;28;20241;-62
2021/04/22 00:11:48;;;;;;;4.97;3.50;;;9.20;99.90;;;;;;5027937;28;20715;-62
2021/04/22 00:14:14;;;;;;;3.50;2.60;;;9.10;99.90;;;;;;5035830;28;20288;-63
2021/04/22 00:16:40;;;;;;;3.27;2.53;;;9.00;99.90;;;;;;5030346;28;20437;-63
2021/04/22 00:19:06;;;;;;;3.10;2.90;;;8.90;99.90;;;;;;5026515;28;20448;-64
2021/04/22 00:21:33;;;;;;;3.33;2.93;;;8.90;99.90;;;;;;5028300;28;20432;-65
2021/04/22 00:23:59;;;;;;;4.30;3.10;;;8.90;99.90;;;;;;5026483;28;20582;-63
2021/04/22 00:26:25;;;;;;;4.57;2.77;;;8.80;99.90;;;;;;5025086;28;20514;-63
2021/04/22 00:28:50;;;;;;;2.93;2.60;;;8.70;99.90;;;;;;5022056;28;20445;-68
2021/04/22 00:31:16;;;;;;;5.23;2.80;;;8.70;99.90;;;;;;5026250;28;20715;-63
2021/04/22 00:33:42;;;;;;;5.03;3.20;;;8.70;99.90;;;;;;5029031;28;20213;-63
2021/04/22 00:36:08;;;;;;;3.97;3.20;;;8.60;99.90;;;;;;5030149;28;20227;-63
2021/04/22 00:38:33;;;;;;;5.50;3.70;;;8.50;99.90;;;;;;5029824;28;20205;-64
2021/04/22 00:40:59;;;;;;;7.60;3.50;;;8.50;99.90;;;;;;5029284;28;21134;-63
2021/04/22 00:43:25;;;;;;;3.23;2.93;;;8.40;99.90;;;;;;5029182;28;20664;-63
2021/04/22 00:45:50;;;;;;;4.60;3.10;;;8.40;99.90;;;;;;5030427;28;20234;-63
2021/04/22 00:48:24;;;;;;;3.00;2.80;;;8.40;99.90;;;;;;5028525;28;20190;-63
2021/04/22 00:50:51;;;;;;;6.50;3.03;;;8.30;99.90;;;;;;5024161;28;20185;-64
2021/04/22 00:53:18;;;;;;;4.93;2.93;;;8.20;99.90;;;;;;5029796;28;20459;-64
2021/04/22 00:55:43;;;;;;;4.20;2.90;;;8.10;99.90;;;;;;5029047;28;20447;-64
2021/04/22 00:58:09;;;;;;;4.03;3.13;;;8.10;99.90;;;;;;5027932;28;21004;-63
2021/04/22 01:00:44;;;;;;;4.53;2.90;;;8.00;99.90;;;;;;5030589;28;20671;-63
2021/04/22 01:03:10;;;;;;;9.20;2.90;;;7.90;99.90;;;;;;5028125;28;20838;-63
2021/04/22 01:05:40;;;;;;;4.17;2.80;;;7.90;99.90;;;;;;5028590;28;20942;-63
2021/04/22 01:08:06;;;;;;;3.10;2.90;;;7.90;99.90;;;;;;5024434;28;20443;-63
2021/04/22 01:10:32;;;;;;;5.40;3.60;;;7.80;99.90;;;;;;5027438;28;20440;-63
2021/04/22 01:12:57;;;;;;;3.70;2.60;;;7.80;99.90;;;;;;5030337;28;20181;-63
2021/04/22 01:15:28;;;;;;;7.00;3.00;;;7.70;99.90;;;;;;5029599;28;20462;-63
2021/04/22 01:17:53;;;;;;;3.30;3.03;;;7.70;99.90;;;;;;5028756;28;20618;-62
2021/04/22 01:20:25;;;;;;;3.30;2.80;;;7.60;99.90;;;;;;5028514;28;20455;-61
2021/04/22 01:22:51;;;;;;;3.73;2.90;;;7.40;99.90;;;;;;5016827;28;20665;-63
2021/04/22 01:25:22;;;;;;;3.80;2.90;;;7.40;1.00;;;;;;5029470;28;20440;-63
2021/04/22 01:27:47;;;;;;;4.47;2.80;;;7.40;1.00;;;;;;5028335;28;20460;-63
2021/04/22 01:30:21;;;;;;;3.57;2.93;;;7.30;1.00;;;;;;5026828;28;20561;-64
2021/04/22 01:32:46;;;;;;;3.50;2.70;;;7.30;1.00;;;;;;5027658;28;20634;-63
2021/04/22 01:35:16;;;;;;;4.30;2.80;;;7.20;1.00;;;;;;5028588;28;20219;-63
2021/04/22 01:37:42;;;;;;;6.20;2.92;;;7.10;1.00;;;;;;5027658;28;20194;-64
2021/04/22 01:40:09;;;;;;;5.00;3.30;;;7.10;1.00;;;;;;5029289;28;20187;-64
2021/04/22 01:42:35;;;;;;;5.55;3.90;;;6.90;1.00;;;;;;5025495;28;20557;-64
2021/04/22 01:45:01;;;;;;;5.50;3.40;;;6.80;1.00;;;;;;5028044;28;20195;-65
2021/04/22 01:47:26;;;;;;;8.17;3.63;;;6.70;1.00;;;;;;5025912;28;20219;-61
2021/04/22 01:49:52;;;;;;;5.77;3.03;;;6.60;1.00;;;;;;5024681;28;20474;-64
2021/04/22 01:52:18;;;;;;;5.00;3.20;;;6.50;1.00;;;;;;5026335;28;20274;-64
2021/04/22 01:54:43;;;;;;;8.00;3.43;;;6.50;1.00;;;;;;5027363;28;20283;-64
2021/04/22 01:57:09;;;;;;;7.77;3.33;;;6.40;1.00;;;;;;5024974;28;20185;-63
2021/04/22 01:59:35;;;;;;;7.93;3.20;;;6.30;1.00;;;;;;5026620;28;20258;-63
2021/04/22 02:02:01;;;;;;;6.70;3.35;;;6.30;1.00;;;;;;5028663;28;20267;-63
2021/04/22 02:04:26;;;;;;;4.50;2.93;;;6.20;1.00;;;;;;5026290;28;20277;-64
2021/04/22 02:06:52;;;;;;;5.50;3.40;;;6.20;1.00;;;;;;5027181;28;20684;-63
2021/04/22 02:09:17;;;;;;;3.63;2.70;;;6.10;1.00;;;;;;5027300;28;20183;-64
2021/04/22 02:11:43;;;;;;;4.43;3.43;;;6.00;1.00;;;;;;5028484;28;20272;-61
2021/04/22 02:14:09;;;;;;;3.60;3.17;;;5.90;1.00;;;;;;5031528;28;20205;-61
2021/04/22 02:16:34;;;;;;;3.20;2.77;;;5.90;1.00;;;;;;5027832;28;20437;-61
2021/04/22 02:19:00;;;;;;;5.73;3.00;;;5.80;1.00;;;;;;5026218;28;20189;-65
2021/04/22 02:21:25;;;;;;;4.30;2.80;;;5.70;1.00;;;;;;5029365;28;20179;-60
2021/04/22 02:23:51;;;;;;;4.30;2.80;;;5.70;1.00;;;;;;5022822;28;20858;-60
2021/04/22 02:26:16;;;;;;;6.47;3.47;;;5.70;1.00;;;;;;5028368;28;20861;-61
2021/04/22 02:28:42;;;;;;;6.07;3.30;;;5.80;17.30;;;;;;5026578;28;20196;-61
2021/04/22 02:31:07;;;;;;;10.97;3.33;;;5.70;1.00;;;;;;5020060;28;20187;-62
2021/04/22 02:33:33;;;;;;;4.07;3.07;;;5.60;13.10;;;;;;5026151;28;20190;-61
2021/04/22 02:35:58;;;;;;;5.80;3.27;;;5.50;47.90;;;;;;5028861;28;20852;-60
2021/04/22 02:38:24;;;;;;;8.13;3.53;;;5.50;33.90;;;;;;5027767;28;20190;-61
2021/04/22 02:40:50;;;;;;;8.80;3.67;;;5.40;99.90;;;;;;5027604;28;20180;-61
2021/04/22 02:43:17;;;;;;;6.87;3.50;;;5.40;95.50;;;;;;5027040;28;20176;-61
2021/04/22 02:45:48;;;;;;;5.82;3.05;;;5.40;79.70;;;;;;5020224;28;20277;-60
2021/04/22 02:48:14;;;;;;;4.40;3.17;;;5.40;60.60;;;;;;5024954;28;20225;-59
2021/04/22 02:50:43;;;;;;;4.68;3.70;;;5.20;99.90;;;;;;5029074;28;20187;-60
2021/04/22 02:53:09;;;;;;;8.02;3.55;;;5.20;99.90;;;;;;5026570;28;20658;-59
2021/04/22 02:55:35;;;;;;;5.53;3.35;;;5.10;99.90;;;;;;5043213;28;20249;-60
2021/04/22 02:58:01;;;;;;;6.07;3.60;;;5.10;99.90;;;;;;5028594;28;20205;-60
2021/04/22 03:00:27;;;;;;;5.05;3.55;;;5.00;99.90;;;;;;5027902;28;20561;-60
2021/04/22 03:02:52;;;;;;;4.50;3.63;;;5.00;99.90;;;;;;5026698;28;20183;-63
2021/04/22 03:05:18;;;;;;;12.07;4.17;;;4.90;99.90;;;;;;5027471;28;20195;-59
2021/04/22 03:07:45;;;;;;;7.53;4.57;;;4.90;99.90;;;;;;5026404;28;20193;-61
2021/04/22 03:10:15;;;;;;;11.05;4.97;;;4.90;99.90;;;;;;5028534;28;20437;-60
2021/04/22 03:12:41;;;;;;;7.07;3.63;;;4.80;99.90;;;;;;5027434;28;20249;-59
2021/04/22 03:15:07;;;;;;;10.70;3.50;;;4.80;99.90;;;;;;5026787;28;20214;-60
2021/04/22 03:17:34;;;;;;;7.22;3.50;;;4.80;99.90;;;;;;5031783;28;20188;-60
2021/04/22 03:19:59;;;;;;;8.00;4.13;;;4.80;99.90;;;;;;5032062;28;20203;-60
2021/04/22 03:22:25;;;;;;;7.63;4.40;;;4.80;1.00;;;;;;5030755;28;20186;-61
2021/04/22 03:24:51;;;;;;;13.27;4.67;;;4.80;1.00;;;;;;5031675;28;20186;-61
2021/04/22 03:27:17;;;;;;;8.35;4.10;;;4.70;1.00;;;;;;5028834;28;20182;-60
2021/04/22 03:29:42;;;;;;;8.43;4.03;;;4.60;1.00;;;;;;5032021;28;20688;-59
2021/04/22 03:32:08;;;;;;;6.23;3.20;;;4.60;1.00;;;;;;5025276;28;20193;-61
2021/04/22 03:34:33;;;;;;;7.17;4.17;;;4.50;1.00;;;;;;5029727;28;20290;-62
2021/04/22 03:36:59;;;;;;;6.30;4.03;;;4.50;56.90;;;;;;5032544;28;20209;-60
2021/04/22 03:39:24;;;;;;;7.97;3.70;;;4.50;99.90;;;;;;5031256;28;20586;-60
2021/04/22 03:41:50;;;;;;;6.47;3.57;;;4.40;99.90;;;;;;5029177;28;20190;-60
2021/04/22 03:44:15;;;;;;;8.83;3.70;;;4.30;1.00;;;;;;5029696;28;20191;-60
2021/04/22 03:46:41;;;;;;;7.57;3.63;;;4.30;1.00;;;;;;5029636;28;20193;-60
2021/04/22 03:49:07;;;;;;;7.63;3.80;;;4.20;5.80;;;;;;5031858;28;20266;-60
2021/04/22 03:51:33;;;;;;;7.17;3.97;;;4.30;99.90;;;;;;5029844;28;20193;-62
2021/04/22 03:53:58;;;;;;;7.40;3.43;;;4.30;99.90;;;;;;5029999;28;20206;-60
2021/04/22 03:56:24;;;;;;;3.80;3.33;;;4.20;99.90;;;;;;5031714;28;20669;-60
2021/04/22 03:58:49;;;;;;;6.23;3.73;;;4.20;1.00;;;;;;5030057;28;20273;-63
2021/04/22 04:01:15;;;;;;;9.50;3.80;;;4.20;1.00;;;;;;5045903;28;20212;-60
2021/04/22 04:03:41;;;;;;;9.20;3.53;;;4.20;1.00;;;;;;5029815;28;20187;-60
2021/04/22 04:06:06;;;;;;;8.10;4.20;;;4.20;1.50;;;;;;5028797;28;20175;-60
2021/04/22 04:08:32;;;;;;;5.07;3.80;;;4.20;10.20;;;;;;5027928;28;20186;-59
2021/04/22 04:10:57;;;;;;;7.77;3.33;;;4.10;99.90;;;;;;5024752;28;20920;-59
2021/04/22 04:13:23;;;;;;;8.53;3.73;;;4.10;1.00;;;;;;5028886;28;20859;-60
2021/04/22 04:15:48;;;;;;;4.90;3.50;;;4.10;99.90;;;;;;5037215;28;20190;-61
2021/04/22 04:18:18;;;;;;;4.90;3.40;;;4.10;99.90;;;;;;5028506;28;20182;-60
2021/04/22 04:20:44;;;;;;;7.82;3.63;;;4.10;99.90;;;;;;5012268;28;20442;-60
2021/04/22 04:23:09;;;;;;;6.90;3.30;;;4.10;99.90;;;;;;5009509;28;20204;-61
2021/04/22 04:25:35;;;;;;;7.30;3.60;;;4.20;1.00;;;;;;5020402;28;20182;-59
2021/04/22 04:28:00;;;;;;;7.00;3.40;;;4.20;99.90;;;;;;5007578;28;20555;-60
2021/04/22 04:30:26;;;;;;;9.23;4.17;;;4.20;1.00;;;;;;5009661;28;20238;-60
2021/04/22 04:32:52;;;;;;;8.63;3.83;;;4.30;99.90;;;;;;5022142;28;20230;-59
2021/04/22 04:35:17;;;;;;;9.40;3.70;;;4.30;99.90;;;;;;5003494;28;20499;-61
2021/04/22 04:37:43;;;;;;;8.30;3.93;;;4.30;1.00;;;;;;5009944;28;20308;-60
2021/04/22 04:40:11;;;;;;;7.37;4.23;;;4.30;99.90;;;;;;5008824;28;20189;-59
2021/04/22 04:42:38;;;;;;;6.90;3.35;;;4.30;1.00;;;;;;5015245;28;20271;-60
2021/04/22 04:45:05;;;;;;;8.10;4.25;;;4.30;1.00;;;;;;5034600;28;20188;-59
2021/04/22 04:47:31;;;;;;;7.80;4.20;;;4.40;1.00;;;;;;5030660;28;20205;-60
2021/04/22 04:49:56;;;;;;;7.43;3.77;;;4.50;99.90;;;;;;5029719;28;20191;-60
2021/04/22 04:52:23;;;;;;;9.00;4.37;;;4.50;1.00;;;;;;5030740;28;20197;-60
2021/04/22 04:54:48;;;;;;;8.73;5.07;;;4.50;99.90;;;;;;5032209;28;20218;-60
2021/04/22 04:57:14;;;;;;;9.73;3.87;;;4.60;99.90;;;;;;5034941;28;20195;-60
2021/04/22 04:59:39;;;;;;;7.20;3.90;;;4.60;46.70;;;;;;5030598;28;20245;-60
2021/04/22 05:02:05;;;;;;;6.43;3.60;;;4.60;1.00;;;;;;5029576;28;20186;-60
2021/04/22 05:04:32;;;;;;;9.50;4.57;;;4.70;1.00;;;;;;5028303;28;20198;-60
2021/04/22 05:06:57;;;;;;;10.20;4.65;;;4.70;1.00;;;;;;5030484;28;20191;-60
2021/04/22 05:09:23;;;;;;;12.13;4.97;;;4.60;59.10;;;;;;5028950;28;20221;-61
2021/04/22 05:11:48;;;;;;;8.23;4.20;;;4.60;1.00;;;;;;5030138;28;20538;-61
2021/04/22 05:14:14;;;;;;;6.77;4.50;;;4.60;28.20;;;;;;5025317;28;20219;-61
2021/04/22 05:16:40;;;;;;;13.47;4.37;;;4.60;1.00;;;;;;5030376;28;20178;-60
2021/04/22 05:19:05;;;;;;;15.07;4.43;;;4.60;99.90;;;;;;5029193;28;20193;-60
2021/04/22 05:21:31;;;;;;;10.07;4.70;;;4.70;99.90;;;;;;5030530;28;20179;-60
2021/04/22 05:23:57;;;;;;;6.23;3.97;;;4.70;1.00;;;;;;5029121;28;20240;-60
2021/04/22 05:26:23;;;;;;;10.80;4.68;;;4.70;1.00;;;;;;5029189;28;20706;-61
2021/04/22 05:28:51;;;;;;;6.93;4.22;;;4.80;1.00;;;;;;5030020;28;20217;-60
2021/04/22 05:31:17;;;;;;;10.32;4.22;;;4.90;1.00;;;;;;5044315;28;20195;-59
2021/04/22 05:33:42;;;;;;;7.40;4.00;;;5.00;99.90;;;;;;5029704;28;20186;-60
2021/04/22 05:36:08;;;;;;;9.40;4.10;;;5.00;1.00;;;;;;5028930;28;20233;-59
2021/04/22 05:38:33;;;;;;;6.37;3.80;;;5.10;1.00;;;;;;5029899;28;20206;-59
2021/04/22 05:40:59;;;;;;;13.00;4.50;;;5.20;99.90;;;;;;5044189;28;20629;-60
2021/04/22 05:43:25;;;;;;;9.00;4.33;;;5.20;99.90;;;;;;5028714;28;20175;-61
2021/04/22 05:45:50;;;;;;;12.23;4.63;;;5.30;1.00;;;;;;5028245;28;21307;-59
2021/04/22 05:48:16;;;;;;;6.87;4.17;;;5.40;1.00;;;;;;5029726;28;20191;-60
2021/04/22 05:50:41;;;;;;;7.03;4.57;;;5.40;1.00;;;;;;5028660;28;20196;-58
2021/04/22 05:53:07;;;;;;;11.30;4.57;;;5.50;1.00;;;;;;5031158;28;20647;-61
2021/04/22 05:55:33;;;;;;;8.10;4.20;;;5.60;1.00;;;;;;5029380;28;20320;-60
2021/04/22 05:58:00;;;;;;;10.17;5.20;;;5.80;99.90;;;;;;5023399;28;20179;-60
2021/04/22 06:00:28;;;;;;;8.00;4.28;;;5.90;99.90;;;;;;5025416;28;20519;-61
2021/04/22 06:02:54;;;;;;;10.13;4.68;;;5.90;99.30;;;;;;5029257;28;20269;-60
2021/04/22 06:05:20;;;;;;;9.93;4.43;;;6.10;1.00;;;;;;5028818;28;20280;-61
2021/04/22 06:07:46;;;;;;;11.07;4.57;;;6.10;1.00;;;;;;5028963;28;20286;-59
2021/04/22 06:10:12;;;;;;;12.05;5.07;;;6.20;1.00;;;;;;5028953;28;20257;-62
2021/04/22 06:12:38;;;;;;;6.32;4.22;;;6.20;1.00;;;;;;5028778;28;20183;-61
2021/04/22 06:15:05;;;;;;;8.73;4.53;;;6.20;99.90;;;;;;5029221;28;20207;-60
2021/04/22 06:17:31;;;;;;;6.88;4.10;;;6.30;99.90;;;;;;5027388;28;20187;-60
2021/04/22 06:19:57;;;;;;;6.60;3.90;;;6.30;99.90;;;;;;5028426;28;20196;-60
2021/04/22 06:22:22;;;;;;;7.70;5.10;;;6.40;99.90;;;;;;5043949;28;20190;-57
2021/04/22 06:24:48;;;;;;;9.40;4.47;;;6.50;99.90;;;;;;5029061;28;20413;-60
2021/04/22 06:27:13;;;;;;;9.63;4.50;;;6.60;99.90;;;;;;5028677;28;20659;-61
2021/04/22 06:29:39;;;;;;;11.13;4.93;;;6.80;99.90;;;;;;5028852;28;20231;-60
2021/04/22 06:32:07;;;;;;;7.50;4.30;;;6.90;99.90;;;;;;5023882;28;20199;-60
2021/04/22 06:34:33;;;;;;;10.07;4.50;;;7.00;99.90;;;;;;5027953;28;20247;-60
2021/04/22 06:36:59;;;;;;;7.60;4.10;;;7.10;99.90;;;;;;5028987;28;20976;-58
2021/04/22 06:39:26;;;;;;;12.37;4.60;;;7.10;91.50;;;;;;5028336;28;20193;-61
2021/04/22 06:41:52;;;;;;;8.88;3.80;;;7.30;25.70;;;;;;5023111;28;21172;-63
2021/04/22 06:44:17;;;;;;;7.37;3.77;;;7.40;1.00;;;;;;5015345;28;20182;-64
2021/04/22 06:46:44;;;;;;;8.50;4.90;;;7.50;1.00;;;;;;5024953;28;20445;-61
2021/04/22 06:49:10;;;;;;;6.28;4.15;;;7.50;1.00;;;;;;5028042;28;20181;-61
2021/04/22 06:51:35;;;;;;;6.10;3.90;;;7.50;1.00;;;;;;5031630;28;20666;-64
2021/04/22 06:54:01;;;;;;;6.80;4.03;;;7.50;1.00;;;;;;5027737;28;20200;-64
2021/04/22 06:56:27;;;;;;;7.70;4.13;;;7.60;1.00;;;;;;5030101;28;20185;-63
2021/04/22 06:58:54;;;;;;;9.10;4.20;;;7.70;1.00;;;;;;5031848;28;20184;-61
2021/04/22 07:01:20;;;;;;;10.10;4.30;;;7.80;1.00;;;;;;5030876;28;20533;-64
2021/04/22 07:03:45;;;;;;;14.70;7.43;;;7.90;1.00;;;;;;5030769;28;20435;-61
2021/04/22 07:06:11;;;;;;;7.90;3.67;;;7.90;1.00;;;;;;5030929;28;20189;-60
2021/04/22 07:08:39;;;;;;;5.30;3.77;;;8.10;1.00;;;;;;5025919;28;20181;-62
2021/04/22 07:11:04;;;;;;;9.77;4.23;;;8.20;1.00;;;;;;5029206;28;20217;-61
2021/04/22 07:13:30;;;;;;;7.23;4.00;;;8.30;1.00;;;;;;5030737;28;20443;-62
2021/04/22 07:15:55;;;;;;;6.40;3.77;;;8.20;1.00;;;;;;5033405;28;20220;-62
2021/04/22 07:18:21;;;;;;;6.73;4.20;;;8.30;1.00;;;;;;5019193;28;20575;-62
2021/04/22 07:20:46;;;;;;;4.30;3.90;;;8.40;1.00;;;;;;5031126;28;20237;-62
2021/04/22 07:23:13;;;;;;;5.13;3.77;;;8.40;1.00;;;;;;5025970;28;20196;-65
2021/04/22 07:25:39;;;;;;;6.30;3.83;;;8.30;1.00;;;;;;5024114;28;20293;-64
2021/04/22 07:28:06;;;;;;;6.23;4.10;;;8.40;1.00;;;;;;5023265;28;20527;-63
2021/04/22 07:30:32;;;;;;;7.50;4.43;;;8.30;1.00;;;;;;5024046;28;20232;-64
2021/04/22 07:33:00;;;;;;;7.43;4.10;;;8.30;1.00;;;;;;5027376;28;20412;-62
2021/04/22 07:35:26;;;;;;;6.87;3.93;;;8.30;1.00;;;;;;5029896;28;20268;-63
2021/04/22 07:37:51;;;;;;;5.30;4.13;;;8.20;1.00;;;;;;5027320;28;20433;-64
2021/04/22 07:40:23;;;;;;;8.43;4.10;;;8.20;1.00;;;;;;5014592;28;20616;-64
2021/04/22 07:42:49;;;;;;;6.53;3.93;;;8.10;1.00;;;;;;5029991;28;20177;-63
2021/04/22 07:45:18;;;;;;;6.47;3.50;;;8.10;1.00;;;;;;5025035;28;20437;-65
2021/04/22 07:47:44;;;;;;;5.33;4.17;;;8.10;1.00;;;;;;5028692;28;20427;-63
2021/04/22 07:50:12;;;;;;;9.00;4.00;;;8.10;1.00;;;;;;5030678;28;20788;-66
2021/04/22 07:52:38;;;;;;;4.70;3.67;;;8.00;1.00;;;;;;5029009;28;20420;-64
2021/04/22 07:55:09;;;;;;;6.40;4.40;;;8.00;1.00;;;;;;5020465;28;20459;-62
2021/04/22 07:57:35;;;;;;;5.13;3.50;;;8.10;1.00;;;;;;5027391;28;20301;-67
2021/04/22 08:00:09;;;;;;;8.67;3.80;;;8.10;1.00;;;;;;5028497;28;20454;-65
2021/04/22 08:02:34;;;;;;;8.13;3.67;;;8.10;1.00;;;;;;5029100;28;20417;-62
2021/04/22 08:05:00;;;;;;;8.10;3.90;;;8.10;1.00;;;;;;5031949;28;20435;-62
2021/04/22 08:07:26;;;;;;;8.57;4.07;;;8.30;1.00;;;;;;5028531;28;20182;-61
2021/04/22 08:09:51;;;;;;;6.47;4.30;;;8.40;1.00;;;;;;5029870;28;20726;-62
2021/04/22 08:12:17;;;;;;;6.00;3.60;;;8.40;1.00;;;;;;5020240;28;20194;-63
2021/04/22 08:14:43;;;;;;;6.33;4.13;;;8.50;1.00;;;;;;5029629;28;20210;-62
2021/04/22 08:17:08;;;;;;;8.30;3.97;;;8.60;1.00;;;;;;5030713;28;20181;-62
2021/04/22 08:19:34;;;;;;;7.20;4.47;;;8.60;1.00;;;;;;5026047;28;20186;-62
2021/04/22 08:22:00;;;;;;;6.80;4.10;;;8.50;1.00;;;;;;5024863;28;20177;-62
2021/04/22 08:24:27;;;;;;;4.50;4.07;;;8.30;1.00;;;;;;5021091;28;20301;-63
2021/04/22 08:26:53;;;;;;;8.43;4.37;;;8.40;1.00;;;;;;5030012;28;20562;-63
2021/04/22 08:29:20;;;;;;;5.93;4.00;;;8.40;1.00;;;;;;5030293;28;20496;-63
2021/04/22 08:31:47;;;;;;;7.13;4.37;;;8.50;1.00;;;;;;5029986;28;20186;-62
2021/04/22 08:34:12;;;;;;;6.87;4.43;;;8.50;1.00;;;;;;5029061;28;20993;-62
2021/04/22 08:36:38;;;;;;;5.70;4.17;;;8.60;1.00;;;;;;5029239;28;20435;-61
2021/04/22 08:39:09;;;;;;;6.57;4.30;;;8.50;1.00;;;;;;5029265;28;20308;-62
2021/04/22 08:41:35;;;;;;;7.40;4.17;;;8.60;1.00;;;;;;5028354;28;20512;-62
2021/04/22 08:44:02;;;;;;;5.67;3.90;;;8.70;1.00;;;;;;5029911;28;20544;-62
2021/04/22 08:46:29;;;;;;;7.50;3.90;;;8.70;1.00;;;;;;5030125;28;20431;-62
2021/04/22 08:48:56;;;;;;;6.30;4.23;;;8.80;1.00;;;;;;5029145;28;20448;-62
2021/04/22 08:51:22;;;;;;;6.07;3.83;;;8.90;1.00;;;;;;5030208;28;20425;-63
2021/04/22 08:53:49;;;;;;;4.33;3.40;;;8.90;1.00;;;;;;5028886;28;20439;-62
2021/04/22 08:56:18;;;;;;;10.20;4.70;;;9.00;99.90;;;;;;5029193;28;20781;-63
2021/04/22 08:58:44;;;;;;;8.10;3.67;;;9.10;99.90;;;;;;5029091;28;20591;-64
2021/04/22 09:01:13;;;;;;;4.57;4.13;;;9.20;99.90;;;;;;5029984;28;20441;-62
2021/04/22 09:03:43;;;;;;;9.67;4.13;;;9.30;99.90;;;;;;5028215;28;20423;-63
2021/04/22 09:06:09;;;;;;;6.73;3.60;;;9.30;99.90;;;;;;5029936;28;20416;-63
2021/04/22 09:08:46;;;;;;;5.53;3.53;;;9.30;99.90;;;;;;5028945;28;20425;-63
2021/04/22 09:11:17;;;;;;;7.80;4.10;;;9.20;99.90;;;;;;5028298;28;20527;-63
2021/04/22 09:13:43;;;;;;;7.67;4.30;;;9.20;99.90;;;;;;5030856;28;20449;-63
2021/04/22 09:16:10;;;;;;;6.17;3.83;;;9.30;99.90;;;;;;5029127;28;20476;-63
2021/04/22 09:18:40;;;;;;;7.57;4.27;;;9.30;99.90;;;;;;5029710;28;20414;-63
2021/04/22 09:21:16;;;;;;;7.10;4.50;;;9.10;99.90;;;;;;5027156;28;20528;-64
2021/04/22 09:24:01;;;;;;;7.20;4.60;;;9.20;99.90;;;;;;5028980;28;20461;-63
2021/04/22 09:26:48;;;;;;;5.73;3.70;;;9.10;99.90;;;;;;5019571;28;20460;-64
2021/04/22 09:29:31;;;;;;;5.37;4.10;;;9.00;99.90;;;;;;5029097;28;20475;-63
2021/04/22 09:32:17;;;;;;;4.70;4.00;;;9.10;99.90;;;;;;5029239;28;20955;-61
2021/04/22 09:34:57;;;;;;;6.63;4.53;;;9.60;99.90;;;;;;5027843;28;20504;-63
2021/04/22 09:37:39;;;;;;;7.30;4.50;;;9.60;99.90;;;;;;5028251;28;20900;-62
2021/04/22 09:40:18;;;;;;;5.17;3.87;;;9.70;99.90;;;;;;5028715;28;20540;-63
2021/04/22 09:42:45;;;;;;;3.90;3.60;;;9.70;99.90;;;;;;5029683;28;20437;-63
2021/04/22 09:45:13;;;;;;;5.10;4.17;;;9.70;99.90;;;;;;5027628;28;20450;-63
2021/04/22 09:47:39;;;;;;;5.57;4.13;;;9.70;99.90;;;;;;5028064;28;20491;-64
2021/04/22 09:50:11;;;;;;;4.23;3.50;;;9.80;99.90;;;;;;5015462;28;20417;-64
2021/04/22 09:52:40;;;;;;;7.07;3.80;;;9.80;99.90;;;;;;5028985;28;20502;-62
2021/04/22 09:55:09;;;;;;;5.43;3.70;;;10.10;99.90;;;;;;5027538;28;20467;-62
2021/04/22 09:57:35;;;;;;;5.30;3.50;;;10.30;99.90;;;;;;5029139;28;20503;-63
2021/04/22 10:00:28;;;;;;;5.33;3.50;;;10.10;99.90;;;;;;5028082;28;20439;-64
2021/04/22 10:02:56;;;;;;;4.77;3.43;;;9.80;99.90;;;;;;5020541;28;21119;-62
2021/04/22 10:05:36;;;;;;;8.20;3.83;;;9.90;99.90;;;;;;5024446;28;20437;-62
2021/04/22 10:08:11;;;;;;;4.80;3.60;;;10.00;99.90;;;;;;5028006;28;20504;-63
2021/04/22 10:10:38;;;;;;;7.77;3.57;;;9.90;99.90;;;;;;5028416;28;20761;-62
2021/04/22 10:13:12;;;;;;;6.10;3.40;;;9.90;99.90;;;;;;5027447;28;20429;-64
2021/04/22 10:15:47;;;;;;;9.90;6.27;;;9.90;99.90;;;;;;5035151;28;20464;-62
2021/04/22 10:18:13;;;;;;;4.67;3.83;;;10.00;99.90;;;;;;5028806;28;20471;-63
2021/04/22 10:20:40;;;;;;;5.23;3.73;;;10.20;99.90;;;;;;5042079;28;20472;-63
2021/04/22 10:23:08;;;;;;;6.90;3.60;;;10.10;99.90;;;;;;5028300;28;20661;-62
2021/04/22 10:25:36;;;;;;;9.13;4.33;;;10.00;99.90;;;;;;5026914;28;20505;-62
2021/04/22 10:28:13;;;;;;;7.83;3.57;;;10.10;99.90;;;;;;5028534;28;20985;-63
2021/04/22 10:30:45;;;;;;;5.87;3.83;;;10.30;99.90;;;;;;5027503;28;20503;-61
2021/04/22 10:33:11;;;;;;;5.40;4.10;;;10.50;99.90;;;;;;5027472;28;20445;-63
2021/04/22 10:35:40;;;;;;;5.33;4.10;;;10.50;99.90;;;;;;5027368;28;20534;-62
2021/04/22 10:38:06;;;;;;;4.83;4.03;;;10.50;99.90;;;;;;5033603;28;20430;-62
2021/04/22 10:40:37;;;;;;;6.00;4.00;;;10.40;99.90;;;;;;5022533;28;20453;-63
2021/04/22 10:43:06;;;;;;;7.20;4.60;;;10.30;99.90;;;;;;5021268;28;20433;-63
2021/04/22 10:45:35;;;;;;;5.23;4.50;;;10.30;99.90;;;;;;5024141;28;20428;-61
2021/04/22 10:48:00;;;;;;;4.80;4.40;;;10.60;99.90;;;;;;5019912;28;20425;-62
2021/04/22 10:50:29;;;;;;;7.63;4.47;;;10.60;99.90;;;;;;5021300;28;20414;-63
2021/04/22 10:52:57;;;;;;;8.03;4.77;;;11.10;99.90;;;;;;5020215;28;20203;-64
2021/04/22 10:55:31;;;;;;;6.53;4.83;;;11.20;99.90;;;;;;5020754;28;20545;-62
2021/04/22 10:58:11;;;;;;;6.13;4.93;;;11.20;99.90;;;;;;5024546;28;20464;-62
2021/04/22 11:00:37;;;;;;;5.97;4.63;;;11.00;99.90;;;;;;5026356;28;20464;-62
2021/04/22 11:03:03;;;;;;;5.83;4.90;;;10.80;99.90;;;;;;5022168;28;20457;-62
2021/04/22 11:05:31;;;;;;;5.43;4.67;;;10.90;99.90;;;;;;5028527;28;20186;-62
2021/04/22 11:08:08;;;;;;;6.53;5.07;;;11.40;99.90;;;;;;5020440;28;20491;-60
2021/04/22 11:10:41;;;;;;;8.50;4.70;;;12.00;99.90;;;;;;5023518;28;20499;-66
2021/04/22 11:13:14;;;;;;;6.10;5.50;;;12.50;99.90;;;;;;5022649;28;20499;-65
2021/04/22 11:15:56;;;;;;;6.53;4.67;;;12.80;99.90;;;;;;5025411;28;20469;-66
2021/04/22 11:18:34;;;;;;;5.80;5.27;;;13.10;99.90;;;;;;5021521;28;20431;-65
2021/04/22 11:21:00;;;;;;;5.23;4.73;;;13.80;99.90;;;;;;5021503;28;20438;-66
2021/04/22 11:23:25;;;;;;;7.10;4.60;;;13.90;99.90;;;;;;5021043;28;20411;-62
2021/04/22 11:25:54;;;;;;;6.33;4.57;;;14.10;99.90;;;;;;5024092;28;20190;-65
2021/04/22 11:28:33;;;;;;;9.37;5.20;;;13.90;99.90;;;;;;5026208;28;20191;-66
2021/04/22 11:31:11;;;;;;;5.30;4.87;;;13.70;99.90;;;;;;5024344;28;20471;-66
2021/04/22 11:33:38;;;;;;;5.33;4.80;;;13.60;99.90;;;;;;5024673;28;20417;-66
2021/04/22 11:36:24;;;;;;;6.43;4.60;;;14.40;99.90;;;;;;5028986;28;20518;-65
2021/04/22 11:38:51;;;;;;;6.73;5.63;;;15.30;99.90;;;;;;5027735;28;20433;-66
2021/04/22 11:41:17;;;;;;;5.40;4.90;;;14.80;99.90;;;;;;5031283;28;20420;-65
2021/04/22 11:43:43;;;;;;;7.23;5.10;;;14.00;99.90;;;;;;5025888;28;20780;-66
2021/04/22 11:46:08;;;;;;;5.80;5.30;;;13.60;99.90;;;;;;5031143;28;20582;-65
2021/04/22 11:48:42;;;;;;;4.93;4.43;;;13.50;99.90;;;;;;5030468;28;20176;-64
2021/04/22 11:51:09;;;;;;;5.30;4.80;;;13.50;99.90;;;;;;5029204;28;20210;-65
2021/04/22 11:53:37;;;;;;;4.97;4.47;;;13.50;99.90;;;;;;5029281;28;20440;-65
2021/04/22 11:56:04;;;;;;;5.70;5.03;;;13.30;99.90;;;;;;5028336;28;20455;-64
2021/04/22 11:58:30;;;;;;;5.30;4.70;;;13.20;99.90;;;;;;5028372;28;20441;-66
2021/04/22 12:01:00;;;;;;;5.70;5.17;;;13.10;99.90;;;;;;5026670;28;20433;-65
2021/04/22 12:03:29;;;;;;;7.83;5.47;;;12.60;99.90;;;;;;5029055;28;20417;-65
2021/04/22 12:05:58;;;;;;;5.23;4.73;;;12.30;99.90;;;;;;5029567;28;20425;-64
2021/04/22 12:08:32;;;;;;;5.07;4.57;;;12.20;99.90;;;;;;5029242;28;20429;-66
2021/04/22 12:11:00;;;;;;;5.80;4.67;;;11.90;99.90;;;;;;5027370;28;20428;-65
2021/04/22 12:13:27;;;;;;;7.67;5.10;;;11.90;99.90;;;;;;5024939;28;20506;-65
2021/04/22 12:15:57;;;;;;;6.10;4.67;;;12.00;99.90;;;;;;5029623;28;20467;-65
2021/04/22 12:18:26;;;;;;;6.83;4.60;;;12.10;99.90;;;;;;5030050;28;20544;-65
2021/04/22 12:20:54;;;;;;;14.03;4.77;;;12.00;99.90;;;;;;5028430;28;20907;-64
2021/04/22 12:23:29;;;;;;;5.67;4.53;;;12.00;99.90;;;;;;5024928;28;20443;-64
2021/04/22 12:25:55;;;;;;;6.43;4.70;;;11.90;99.90;;;;;;5030575;28;20444;-65
2021/04/22 12:28:22;;;;;;;8.90;5.30;;;11.70;99.90;;;;;;5029580;28;20468;-65
2021/04/22 12:30:48;;;;;;;6.87;5.20;;;11.70;99.90;;;;;;5030038;28;20237;-65
2021/04/22 12:33:18;;;;;;;8.27;5.37;;;11.30;99.90;;;;;;5028201;28;20939;-65
2021/04/22 12:35:51;;;;;;;5.10;4.60;;;11.20;99.90;;;;;;5029197;28;20474;-65
2021/04/22 12:38:24;;;;;;;5.87;4.30;;;11.20;99.90;;;;;;5028488;28;20579;-65
2021/04/22 12:40:59;;;;;;;6.70;5.10;;;11.30;99.90;;;;;;5029159;28;20410;-64
2021/04/22 12:43:30;;;;;;;5.07;4.57;;;11.30;99.90;;;;;;5028042;28;20413;-66
2021/04/22 12:46:04;;;;;;;6.80;4.80;;;11.30;99.90;;;;;;5028841;28;20445;-66
2021/04/22 12:48:30;;;;;;;5.20;4.70;;;11.40;99.90;;;;;;5019416;28;20444;-65
2021/04/22 12:50:57;;;;;;;5.27;4.33;;;11.60;99.90;;;;;;5025883;28;20444;-65
2021/04/22 12:53:25;;;;;;;4.83;4.13;;;12.00;99.90;;;;;;5027774;28;20240;-67
2021/04/22 12:55:59;;;;;;;5.80;4.33;;;12.20;99.90;;;;;;5027741;28;20489;-65
2021/04/22 12:58:34;;;;;;;7.73;5.00;;;12.40;99.90;;;;;;5027992;28;20409;-65
2021/04/22 13:01:12;;;;;;;5.43;3.90;;;12.10;99.90;;;;;;5028811;28;20467;-62